Time,TemperatureF,DewpointF,PressureIn,WindDirection,WindDirectionDegrees,WindSpeedMPH,WindSpeedGustMPH,Humidity,HourlyPrecipIn,Conditions,Clouds,dailyrainin,SolarRadiationWatts/m^2,SoftwareType,DateUTC
2013-02-17 00:01:00,1.8,-2.2,30.25,West,279,0.0,0.0,83,0.00,,,0.00,0,Wunderground v.1.15,2013-02-17 06:01:00,
2013-02-17 00:06:00,1.9,-1.8,30.25,West,279,0.0,2.0,84,0.00,,,0.00,0,Wunderground v.1.15,2013-02-17 06:06:00,
2013-02-17 00:12:00,2.0,-1.7,30.25,West,279,0.0,0.0,84,0.00,,,0.00,0,Wunderground v.1.15,2013-02-17 06:12:00,
2013-02-17 00:17:00,2.0,-1.7,30.25,West,279,0.0,0.0,84,0.00,,,0.00,0,Wunderground v.1.15,2013-02-17 06:17:00,
2013-02-17 00:23:00,1.9,-1.8,30.25,West,279,0.0,0.0,84,0.00,,,0.00,0,Wunderground v.1.15,2013-02-17 06:23:00,
2013-02-17 00:28:00,1.8,-1.9,30.24,West,279,0.0,0.0,84,0.00,,,0.00,0,Wunderground v.1.15,2013-02-17 06:28:00,
2013-02-17 00:34:00,1.8,-1.9,30.25,West,279,0.0,0.0,84,0.00,,,0.00,0,Wunderground v.1.15,2013-02-17 06:34:00,
2013-02-17 00:40:00,1.7,-2.0,30.25,West,279,0.0,0.0,84,0.00,,,0.00,0,Wunderground v.1.15,2013-02-17 06:40:00,
2013-02-17 00:45:00,1.5,-2.2,30.25,West,279,0.0,0.0,84,0.00,,,0.00,0,Wunderground v.1.15,2013-02-17 06:45:00,
2013-02-17 00:50:00,1.4,-2.3,30.24,West,279,0.0,0.0,84,0.00,,,0.00,0,Wunderground v.1.15,2013-02-17 06:50:00,
2013-02-17 00:55:00,1.3,-2.4,30.24,West,279,0.0,0.0,84,0.00,,,0.00,0,Wunderground v.1.15,2013-02-17 06:55:00,
2013-02-17 01:08:00,1.1,-2.6,30.25,West,279,0.0,0.0,84,0.00,,,0.00,0,Wunderground v.1.15,2013-02-17 07:08:00,
2013-02-17 01:13:00,1.0,-2.7,30.24,West,279,0.0,0.0,84,0.00,,,0.00,0,Wunderground v.1.15,2013-02-17 07:13:00,
2013-02-17 01:19:00,1.0,-2.7,30.24,West,279,0.0,0.0,84,0.00,,,0.00,0,Wunderground v.1.15,2013-02-17 07:19:00,
2013-02-17 01:24:00,1.0,-2.7,30.25,West,279,0.0,0.0,84,0.00,,,0.00,0,Wunderground v.1.15,2013-02-17 07:24:00,
2013-02-17 01:29:00,1.0,-2.7,30.25,West,279,0.0,0.0,84,0.00,,,0.00,0,Wunderground v.1.15,2013-02-17 07:29:00,
2013-02-17 01:35:00,0.9,-2.8,30.25,West,279,0.0,0.0,84,0.00,,,0.00,0,Wunderground v.1.15,2013-02-17 07:35:00,
2013-02-17 01:40:00,0.8,-2.9,30.25,West,279,0.0,0.0,84,0.00,,,0.00,0,Wunderground v.1.15,2013-02-17 07:40:00,
2013-02-17 01:45:00,0.8,-2.9,30.25,West,279,0.0,0.0,84,0.00,,,0.00,0,Wunderground v.1.15,2013-02-17 07:45:00,
2013-02-17 01:51:00,0.8,-2.9,30.25,West,279,0.0,0.0,84,0.00,,,0.00,0,Wunderground v.1.15,2013-02-17 07:51:00,
2013-02-17 01:56:00,0.7,-3.0,30.25,West,279,0.0,0.0,84,0.00,,,0.00,0,Wunderground v.1.15,2013-02-17 07:56:00,
2013-02-17 02:01:00,0.6,-3.1,30.25,West,279,0.0,0.0,84,0.00,,,0.00,0,Wunderground v.1.15,2013-02-17 08:01:00,
2013-02-17 02:06:00,0.4,-3.3,30.25,West,279,0.0,0.0,84,0.00,,,0.00,0,Wunderground v.1.15,2013-02-17 08:06:00,
2013-02-17 02:11:00,0.2,-3.5,30.25,West,279,0.0,0.0,84,0.00,,,0.00,0,Wunderground v.1.15,2013-02-17 08:11:00,
2013-02-17 02:16:00,0.1,-3.8,30.25,West,279,0.0,0.0,83,0.00,,,0.00,0,Wunderground v.1.15,2013-02-17 08:16:00,
2013-02-17 02:21:00,0.0,-3.7,30.25,West,279,0.0,0.0,84,0.00,,,0.00,0,Wunderground v.1.15,2013-02-17 08:21:00,
2013-02-17 02:26:00,0.1,-3.6,30.25,West,279,0.0,0.0,84,0.00,,,0.00,0,Wunderground v.1.15,2013-02-17 08:26:00,
2013-02-17 02:31:00,0.2,-3.2,30.25,West,279,0.0,0.0,85,0.00,,,0.00,0,Wunderground v.1.15,2013-02-17 08:31:00,
2013-02-17 02:36:00,0.4,-3.0,30.25,West,279,0.0,0.0,85,0.00,,,0.00,0,Wunderground v.1.15,2013-02-17 08:36:00,
2013-02-17 02:41:00,0.3,-3.4,30.25,West,279,0.0,0.0,84,0.00,,,0.00,0,Wunderground v.1.15,2013-02-17 08:41:00,
2013-02-17 02:46:00,0.2,-3.5,30.25,West,279,0.0,0.0,84,0.00,,,0.00,0,Wunderground v.1.15,2013-02-17 08:46:00,
2013-02-17 02:51:00,0.1,-3.6,30.25,West,279,0.0,0.0,84,0.00,,,0.00,0,Wunderground v.1.15,2013-02-17 08:51:00,
2013-02-17 02:56:00,-0.1,-3.8,30.25,West,279,0.0,0.0,84,0.00,,,0.00,0,Wunderground v.1.15,2013-02-17 08:56:00,
2013-02-17 03:01:00,-0.3,-4.0,30.25,West,279,0.0,0.0,84,0.00,,,0.00,0,Wunderground v.1.15,2013-02-17 09:01:00,
2013-02-17 03:06:00,-0.5,-4.2,30.25,West,279,0.0,0.0,84,0.00,,,0.00,0,Wunderground v.1.15,2013-02-17 09:06:00,
2013-02-17 03:11:00,-0.4,-4.1,30.24,West,279,0.0,0.0,84,0.00,,,0.00,0,Wunderground v.1.15,2013-02-17 09:11:00,
2013-02-17 03:16:00,-0.5,-4.2,30.24,West,279,0.0,0.0,84,0.00,,,0.00,0,Wunderground v.1.15,2013-02-17 09:16:00,
2013-02-17 03:21:00,-0.5,-4.2,30.25,West,279,0.0,0.0,84,0.00,,,0.00,0,Wunderground v.1.15,2013-02-17 09:21:00,
2013-02-17 03:26:00,-0.5,-4.2,30.25,West,279,0.0,0.0,84,0.00,,,0.00,0,Wunderground v.1.15,2013-02-17 09:26:00,
2013-02-17 03:31:00,-0.5,-4.2,30.25,West,279,0.0,0.0,84,0.00,,,0.00,0,Wunderground v.1.15,2013-02-17 09:31:00,
2013-02-17 03:36:00,-0.6,-4.3,30.25,West,279,0.0,0.0,84,0.00,,,0.00,0,Wunderground v.1.15,2013-02-17 09:36:00,
2013-02-17 03:41:00,-0.7,-4.4,30.24,West,279,0.0,0.0,84,0.00,,,0.00,0,Wunderground v.1.15,2013-02-17 09:41:00,
2013-02-17 03:46:00,-0.6,-4.3,30.24,West,279,0.0,0.0,84,0.00,,,0.00,0,Wunderground v.1.15,2013-02-17 09:46:00,
2013-02-17 03:51:00,-0.7,-4.4,30.24,West,279,0.0,0.0,84,0.00,,,0.00,0,Wunderground v.1.15,2013-02-17 09:51:00,
2013-02-17 03:56:00,-0.6,-4.3,30.24,West,279,0.0,0.0,84,0.00,,,0.00,0,Wunderground v.1.15,2013-02-17 09:56:00,
2013-02-17 04:01:00,-0.5,-3.9,30.25,West,279,0.0,0.0,85,0.00,,,0.00,0,Wunderground v.1.15,2013-02-17 10:01:00,
2013-02-17 04:06:00,-0.5,-3.9,30.24,West,279,0.0,0.0,85,0.00,,,0.00,0,Wunderground v.1.15,2013-02-17 10:06:00,
2013-02-17 04:11:00,-0.5,-3.9,30.24,West,279,0.0,0.0,85,0.00,,,0.00,0,Wunderground v.1.15,2013-02-17 10:11:00,
2013-02-17 04:16:00,-0.5,-4.2,30.24,West,279,0.0,0.0,84,0.00,,,0.00,0,Wunderground v.1.15,2013-02-17 10:16:00,
2013-02-17 04:21:00,-0.6,-4.3,30.25,West,279,0.0,0.0,84,0.00,,,0.00,0,Wunderground v.1.15,2013-02-17 10:21:00,
2013-02-17 04:26:00,-0.5,-3.9,30.25,West,279,0.0,0.0,85,0.00,,,0.00,0,Wunderground v.1.15,2013-02-17 10:26:00,
2013-02-17 04:31:00,-0.4,-3.8,30.25,West,279,0.0,0.0,85,0.00,,,0.00,0,Wunderground v.1.15,2013-02-17 10:31:00,
2013-02-17 04:36:00,-0.4,-3.8,30.25,West,279,0.0,0.0,85,0.00,,,0.00,0,Wunderground v.1.15,2013-02-17 10:36:00,
2013-02-17 04:41:00,-0.4,-3.8,30.25,West,279,0.0,0.0,85,0.00,,,0.00,0,Wunderground v.1.15,2013-02-17 10:41:00,
2013-02-17 04:46:00,-0.5,-4.2,30.25,West,279,0.0,0.0,84,0.00,,,0.00,0,Wunderground v.1.15,2013-02-17 10:46:00,
2013-02-17 04:51:00,-0.6,-4.3,30.25,West,279,0.0,0.0,84,0.00,,,0.00,0,Wunderground v.1.15,2013-02-17 10:51:00,
2013-02-17 04:56:00,-0.7,-4.4,30.25,West,279,0.0,0.0,84,0.00,,,0.00,0,Wunderground v.1.15,2013-02-17 10:56:00,
2013-02-17 05:01:00,-0.8,-4.5,30.25,West,279,0.0,0.0,84,0.00,,,0.00,0,Wunderground v.1.15,2013-02-17 11:01:00,
2013-02-17 05:06:00,-0.9,-4.6,30.25,West,279,0.0,0.0,84,0.00,,,0.00,0,Wunderground v.1.15,2013-02-17 11:06:00,
2013-02-17 05:11:00,-1.0,-4.7,30.25,West,279,0.0,0.0,84,0.00,,,0.00,0,Wunderground v.1.15,2013-02-17 11:11:00,
2013-02-17 05:16:00,-1.1,-4.8,30.25,West,279,0.0,0.0,84,0.00,,,0.00,0,Wunderground v.1.15,2013-02-17 11:16:00,
2013-02-17 05:21:00,-1.1,-4.8,30.25,West,279,0.0,0.0,84,0.00,,,0.00,0,Wunderground v.1.15,2013-02-17 11:21:00,
2013-02-17 05:26:00,-1.2,-4.9,30.26,West,279,0.0,0.0,84,0.00,,,0.00,0,Wunderground v.1.15,2013-02-17 11:26:00,
2013-02-17 05:31:00,-1.2,-4.9,30.25,West,279,0.0,0.0,84,0.00,,,0.00,0,Wunderground v.1.15,2013-02-17 11:31:00,
2013-02-17 05:36:00,-1.4,-5.1,30.25,West,279,0.0,0.0,84,0.00,,,0.00,0,Wunderground v.1.15,2013-02-17 11:36:00,
2013-02-17 05:41:00,-1.5,-5.2,30.26,West,279,0.0,0.0,84,0.00,,,0.00,0,Wunderground v.1.15,2013-02-17 11:41:00,
2013-02-17 05:46:00,-1.6,-5.3,30.26,West,279,0.0,0.0,84,0.00,,,0.00,0,Wunderground v.1.15,2013-02-17 11:46:00,
2013-02-17 05:51:00,-1.4,-4.8,30.25,West,279,0.0,0.0,85,0.00,,,0.00,0,Wunderground v.1.15,2013-02-17 11:51:00,
2013-02-17 05:56:00,-1.4,-5.1,30.25,West,279,0.0,0.0,84,0.00,,,0.00,0,Wunderground v.1.15,2013-02-17 11:56:00,
2013-02-17 06:01:00,-1.4,-5.1,30.25,West,279,0.0,0.0,84,0.00,,,0.00,0,Wunderground v.1.15,2013-02-17 12:01:00,
2013-02-17 06:06:00,-1.5,-5.2,30.25,West,279,0.0,0.0,84,0.00,,,0.00,0,Wunderground v.1.15,2013-02-17 12:06:00,
2013-02-17 06:11:00,-1.4,-5.1,30.25,West,279,0.0,0.0,84,0.00,,,0.00,0,Wunderground v.1.15,2013-02-17 12:11:00,
2013-02-17 06:16:00,-1.4,-4.8,30.26,West,279,0.0,0.0,85,0.00,,,0.00,0,Wunderground v.1.15,2013-02-17 12:16:00,
2013-02-17 06:21:00,-1.2,-4.6,30.26,West,279,0.0,0.0,85,0.00,,,0.00,0,Wunderground v.1.15,2013-02-17 12:21:00,
2013-02-17 06:26:00,-1.0,-4.4,30.25,West,279,0.0,0.0,85,0.00,,,0.00,0,Wunderground v.1.15,2013-02-17 12:26:00,
2013-02-17 06:31:00,-1.0,-4.4,30.25,West,279,0.0,0.0,85,0.00,,,0.00,0,Wunderground v.1.15,2013-02-17 12:31:00,
2013-02-17 06:36:00,-1.1,-4.8,30.25,West,279,0.0,0.0,84,0.00,,,0.00,0,Wunderground v.1.15,2013-02-17 12:36:00,
2013-02-17 06:41:00,-1.3,-5.0,30.25,West,279,0.0,0.0,84,0.00,,,0.00,0,Wunderground v.1.15,2013-02-17 12:41:00,
2013-02-17 06:46:00,-1.4,-5.1,30.25,West,279,0.0,0.0,84,0.00,,,0.00,0,Wunderground v.1.15,2013-02-17 12:46:00,
2013-02-17 06:51:00,-1.5,-5.2,30.25,West,279,0.0,0.0,84,0.00,,,0.00,5,Wunderground v.1.15,2013-02-17 12:51:00,
2013-02-17 06:56:00,-1.6,-5.3,30.26,West,279,0.0,0.0,84,0.00,,,0.00,7,Wunderground v.1.15,2013-02-17 12:56:00,
2013-02-17 07:01:00,-1.6,-5.3,30.26,West,279,0.0,0.0,84,0.00,,,0.00,11,Wunderground v.1.15,2013-02-17 13:01:00,
2013-02-17 07:06:00,-1.6,-5.3,30.26,West,279,0.0,0.0,84,0.00,,,0.00,14,Wunderground v.1.15,2013-02-17 13:06:00,
2013-02-17 07:11:00,-1.4,-4.8,30.26,West,279,0.0,0.0,85,0.00,,,0.00,18,Wunderground v.1.15,2013-02-17 13:11:00,
2013-02-17 07:16:00,-1.2,-4.6,30.26,West,279,0.0,0.0,85,0.00,,,0.00,23,Wunderground v.1.15,2013-02-17 13:16:00,
2013-02-17 07:21:00,-0.8,-4.2,30.26,West,279,0.0,0.0,85,0.00,,,0.00,32,Wunderground v.1.15,2013-02-17 13:21:00,
2013-02-17 07:26:00,-0.1,-3.3,30.26,West,279,0.0,0.0,86,0.00,,,0.00,42,Wunderground v.1.15,2013-02-17 13:26:00,
2013-02-17 07:31:00,0.5,-2.5,30.26,West,279,0.0,0.0,87,0.00,,,0.00,58,Wunderground v.1.15,2013-02-17 13:31:00,
2013-02-17 07:36:00,0.9,-2.3,30.26,West,279,0.0,0.0,86,0.00,,,0.00,72,Wunderground v.1.15,2013-02-17 13:36:00,
2013-02-17 07:41:00,1.4,-1.8,30.26,West,279,0.0,0.0,86,0.00,,,0.00,93,Wunderground v.1.15,2013-02-17 13:41:00,
2013-02-17 07:46:00,2.0,-1.2,30.26,West,279,0.0,0.0,86,0.00,,,0.00,109,Wunderground v.1.15,2013-02-17 13:46:00,
2013-02-17 07:51:00,2.5,-0.7,30.26,West,279,0.0,0.0,86,0.00,,,0.00,123,Wunderground v.1.15,2013-02-17 13:51:00,
2013-02-17 07:56:00,3.0,-0.2,30.26,West,279,0.0,0.0,86,0.00,,,0.00,141,Wunderground v.1.15,2013-02-17 13:56:00,
2013-02-17 08:01:00,3.7,0.4,30.26,West,279,0.0,0.0,86,0.00,,,0.00,158,Wunderground v.1.15,2013-02-17 14:01:00,
2013-02-17 08:06:00,4.4,1.1,30.26,West,279,0.0,0.0,86,0.00,,,0.00,178,Wunderground v.1.15,2013-02-17 14:06:00,
2013-02-17 08:11:00,4.8,1.5,30.25,West,279,0.0,0.0,86,0.00,,,0.00,197,Wunderground v.1.15,2013-02-17 14:11:00,
2013-02-17 08:16:00,5.4,2.1,30.26,West,279,0.0,0.0,86,0.00,,,0.00,216,Wunderground v.1.15,2013-02-17 14:16:00,
2013-02-17 08:21:00,6.4,3.1,30.26,West,279,0.0,0.0,86,0.00,,,0.00,236,Wunderground v.1.15,2013-02-17 14:21:00,
2013-02-17 08:26:00,7.1,3.5,30.26,West,279,0.0,0.0,85,0.00,,,0.00,253,Wunderground v.1.15,2013-02-17 14:26:00,
2013-02-17 08:31:00,7.3,3.5,30.26,West,279,0.0,0.0,84,0.00,,,0.00,272,Wunderground v.1.15,2013-02-17 14:31:00,
2013-02-17 08:36:00,7.7,3.6,30.26,West,279,0.0,0.0,83,0.00,,,0.00,292,Wunderground v.1.15,2013-02-17 14:36:00,
2013-02-17 08:41:00,8.3,4.5,30.26,West,279,0.0,0.0,84,0.00,,,0.00,318,Wunderground v.1.15,2013-02-17 14:41:00,
2013-02-17 08:47:00,9.1,5.2,30.26,West,279,0.0,0.0,84,0.00,,,0.00,330,Wunderground v.1.15,2013-02-17 14:47:00,
2013-02-17 08:52:00,9.7,5.6,30.26,West,279,0.0,0.0,83,0.00,,,0.00,353,Wunderground v.1.15,2013-02-17 14:52:00,
2013-02-17 08:57:00,10.2,5.5,30.25,West,279,0.0,0.0,81,0.00,,,0.00,257,Wunderground v.1.15,2013-02-17 14:57:00,
2013-02-17 09:02:00,10.7,6.0,30.26,West,279,0.0,0.0,81,0.00,,,0.00,374,Wunderground v.1.15,2013-02-17 15:02:00,
2013-02-17 09:07:00,11.6,6.6,30.25,SSE,157,4.0,6.0,80,0.00,,,0.00,390,Wunderground v.1.15,2013-02-17 15:07:00,
2013-02-17 09:12:00,12.2,4.9,30.25,SE,145,0.0,7.0,72,0.00,,,0.00,401,Wunderground v.1.15,2013-02-17 15:12:00,
2013-02-17 09:17:00,12.9,5.3,30.25,South,178,1.0,7.0,71,0.00,,,0.00,411,Wunderground v.1.15,2013-02-17 15:17:00,
2013-02-17 09:22:00,13.5,4.9,30.24,SSE,166,2.0,3.0,68,0.00,,,0.00,424,Wunderground v.1.15,2013-02-17 15:22:00,
2013-02-17 09:27:00,13.6,4.3,30.24,South,179,6.0,9.0,66,0.00,,,0.00,438,Wunderground v.1.15,2013-02-17 15:27:00,
2013-02-17 09:32:00,13.7,4.1,30.25,SSE,165,8.0,9.0,65,0.00,,,0.00,448,Wunderground v.1.15,2013-02-17 15:32:00,
2013-02-17 09:37:00,13.9,4.3,30.25,SSE,166,1.0,10.0,65,0.00,,,0.00,462,Wunderground v.1.15,2013-02-17 15:37:00,
2013-02-17 09:42:00,14.1,3.8,30.25,SSE,147,7.0,9.0,63,0.00,,,0.00,473,Wunderground v.1.15,2013-02-17 15:42:00,
2013-02-17 09:47:00,14.1,4.1,30.25,West,269,1.0,9.0,64,0.00,,,0.00,483,Wunderground v.1.15,2013-02-17 15:47:00,
2013-02-17 09:52:00,14.6,4.3,30.25,South,171,4.0,8.0,63,0.00,,,0.00,496,Wunderground v.1.15,2013-02-17 15:52:00,
2013-02-17 09:57:00,15.0,5.0,30.25,SSE,168,1.0,8.0,64,0.00,,,0.00,501,Wunderground v.1.15,2013-02-17 15:57:00,
2013-02-17 10:02:00,15.4,4.7,30.25,SSE,159,4.0,8.0,62,0.00,,,0.00,508,Wunderground v.1.15,2013-02-17 16:02:00,
2013-02-17 10:07:00,15.5,5.1,30.25,SSE,164,7.0,9.0,63,0.00,,,0.00,527,Wunderground v.1.15,2013-02-17 16:07:00,
2013-02-17 10:12:00,15.2,4.9,30.25,South,169,3.0,7.0,63,0.00,,,0.00,540,Wunderground v.1.15,2013-02-17 16:12:00,
2013-02-17 10:17:00,15.2,4.9,30.25,South,169,6.0,9.0,63,0.00,,,0.00,534,Wunderground v.1.15,2013-02-17 16:17:00,
2013-02-17 10:22:00,15.2,4.9,30.25,SE,143,6.0,10.0,63,0.00,,,0.00,540,Wunderground v.1.15,2013-02-17 16:22:00,
2013-02-17 10:27:00,15.5,5.5,30.25,SSE,159,6.0,10.0,64,0.00,,,0.00,548,Wunderground v.1.15,2013-02-17 16:27:00,
2013-02-17 10:32:00,15.8,6.1,30.25,SSW,195,2.0,6.0,65,0.00,,,0.00,559,Wunderground v.1.15,2013-02-17 16:32:00,
2013-02-17 10:37:00,16.2,5.8,30.25,SSE,166,3.0,7.0,63,0.00,,,0.00,563,Wunderground v.1.15,2013-02-17 16:37:00,
2013-02-17 10:42:00,16.5,6.1,30.25,South,190,1.0,7.0,63,0.00,,,0.00,598,Wunderground v.1.15,2013-02-17 16:42:00,
2013-02-17 10:47:00,16.6,5.8,30.25,SSE,168,2.0,8.0,62,0.00,,,0.00,566,Wunderground v.1.15,2013-02-17 16:47:00,
2013-02-17 10:52:00,16.8,6.0,30.25,SSE,158,5.0,7.0,62,0.00,,,0.00,596,Wunderground v.1.15,2013-02-17 16:52:00,
2013-02-17 10:57:00,16.8,6.0,30.25,SSE,165,8.0,9.0,62,0.00,,,0.00,606,Wunderground v.1.15,2013-02-17 16:57:00,
2013-02-17 11:02:00,16.7,6.3,30.24,SSE,155,1.0,10.0,63,0.00,,,0.00,612,Wunderground v.1.15,2013-02-17 17:02:00,
2013-02-17 11:07:00,16.8,5.3,30.24,South,171,3.0,10.0,60,0.00,,,0.00,617,Wunderground v.1.15,2013-02-17 17:07:00,
2013-02-17 11:12:00,17.0,5.9,30.24,SSE,167,6.0,10.0,61,0.00,,,0.00,622,Wunderground v.1.15,2013-02-17 17:12:00,
2013-02-17 11:17:00,17.2,6.4,30.24,SSE,164,7.0,10.0,62,0.00,,,0.00,619,Wunderground v.1.15,2013-02-17 17:17:00,
2013-02-17 11:22:00,17.6,7.1,30.24,South,169,3.0,6.0,63,0.00,,,0.00,628,Wunderground v.1.15,2013-02-17 17:22:00,
2013-02-17 11:27:00,18.6,8.1,30.24,SSE,162,8.0,8.0,63,0.00,,,0.00,633,Wunderground v.1.15,2013-02-17 17:27:00,
2013-02-17 11:32:00,18.9,8.0,30.24,South,175,2.0,7.0,62,0.00,,,0.00,629,Wunderground v.1.15,2013-02-17 17:32:00,
2013-02-17 11:37:00,18.9,8.0,30.24,SSW,192,2.0,10.0,62,0.00,,,0.00,636,Wunderground v.1.15,2013-02-17 17:37:00,
2013-02-17 11:42:00,18.7,7.8,30.24,South,176,1.0,9.0,62,0.00,,,0.00,635,Wunderground v.1.15,2013-02-17 17:42:00,
2013-02-17 11:47:00,18.8,7.9,30.24,South,172,1.0,10.0,62,0.00,,,0.00,619,Wunderground v.1.15,2013-02-17 17:47:00,
2013-02-17 11:53:00,18.4,7.2,30.23,SE,143,8.0,10.0,61,0.00,,,0.00,608,Wunderground v.1.15,2013-02-17 17:53:00,
2013-02-17 11:58:00,18.6,8.4,30.23,SSW,196,2.0,10.0,64,0.00,,,0.00,619,Wunderground v.1.15,2013-02-17 17:58:00,